Terminal Aerodrome Forecast
Issued by NWS

Home | Current Version | Previous Version | Text Only | Print | Product List | Glossary On
Versions: 1 2 3 4 5 6 7 8 9 10 11 12 13 14
000
FTUS45 KCYS 260522
TAFLAR
TAF
KLAR 260522Z 2606/2706 18006KT P6SM SCT250
     FM261900 05011KT P6SM -SHRA VCTS SCT060 OVC090CB
     FM270200 36008KT P6SM VCSH OVC100=

USA.gov is the U.S. government's official web portal to all federal, state and local government web resources and services.